sensor_id;sensor_type;location;lat;lon;timestamp;P1;durP1;ratioP1;P2;durP2;ratioP2
19754;SDS011;10036;47.812;9.274;2023-09-08T00:01:19;8.57;;;5.80;;
19754;SDS011;10036;47.812;9.274;2023-09-08T00:03:46;7.38;;;5.90;;
19754;SDS011;10036;47.812;9.274;2023-09-08T00:06:13;7.72;;;6.13;;
19754;SDS011;10036;47.812;9.274;2023-09-08T00:08:40;7.57;;;6.65;;
19754;SDS011;10036;47.812;9.274;2023-09-08T00:11:08;7.57;;;6.32;;
19754;SDS011;10036;47.812;9.274;2023-09-08T00:13:35;8.07;;;6.28;;
19754;SDS011;10036;47.812;9.274;2023-09-08T00:16:03;8.63;;;6.60;;
19754;SDS011;10036;47.812;9.274;2023-09-08T00:18:32;7.03;;;6.25;;
19754;SDS011;10036;47.812;9.274;2023-09-08T00:20:58;7.97;;;6.45;;
19754;SDS011;10036;47.812;9.274;2023-09-08T00:23:25;8.98;;;6.38;;
19754;SDS011;10036;47.812;9.274;2023-09-08T00:25:53;7.95;;;6.40;;
19754;SDS011;10036;47.812;9.274;2023-09-08T00:28:20;7.05;;;5.85;;
19754;SDS011;10036;47.812;9.274;2023-09-08T00:30:47;8.10;;;6.00;;
19754;SDS011;10036;47.812;9.274;2023-09-08T00:33:16;6.85;;;6.13;;
19754;SDS011;10036;47.812;9.274;2023-09-08T00:35:44;7.18;;;6.07;;
19754;SDS011;10036;47.812;9.274;2023-09-08T00:38:11;8.10;;;5.95;;
19754;SDS011;10036;47.812;9.274;2023-09-08T00:40:37;7.05;;;5.80;;
19754;SDS011;10036;47.812;9.274;2023-09-08T00:43:04;9.88;;;6.55;;
19754;SDS011;10036;47.812;9.274;2023-09-08T00:45:31;9.02;;;6.30;;
19754;SDS011;10036;47.812;9.274;2023-09-08T00:48:04;7.45;;;5.80;;
19754;SDS011;10036;47.812;9.274;2023-09-08T00:50:32;9.88;;;5.95;;
19754;SDS011;10036;47.812;9.274;2023-09-08T00:52:59;8.27;;;5.88;;
19754;SDS011;10036;47.812;9.274;2023-09-08T00:55:26;7.07;;;5.70;;
19754;SDS011;10036;47.812;9.274;2023-09-08T00:57:53;8.85;;;6.30;;
19754;SDS011;10036;47.812;9.274;2023-09-08T01:00:20;6.82;;;6.05;;
19754;SDS011;10036;47.812;9.274;2023-09-08T01:02:47;8.07;;;6.45;;
19754;SDS011;10036;47.812;9.274;2023-09-08T01:05:14;8.80;;;6.10;;
19754;SDS011;10036;47.812;9.274;2023-09-08T01:07:42;10.40;;;6.63;;
19754;SDS011;10036;47.812;9.274;2023-09-08T01:10:10;6.68;;;5.95;;
19754;SDS011;10036;47.812;9.274;2023-09-08T01:12:37;7.03;;;5.78;;
19754;SDS011;10036;47.812;9.274;2023-09-08T01:15:05;9.43;;;6.03;;
19754;SDS011;10036;47.812;9.274;2023-09-08T01:17:34;12.32;;;6.60;;
19754;SDS011;10036;47.812;9.274;2023-09-08T01:20:02;8.10;;;6.00;;
19754;SDS011;10036;47.812;9.274;2023-09-08T01:22:49;8.05;;;6.95;;
19754;SDS011;10036;47.812;9.274;2023-09-08T01:25:28;9.25;;;6.95;;
19754;SDS011;10036;47.812;9.274;2023-09-08T01:27:57;10.15;;;7.15;;
19754;SDS011;10036;47.812;9.274;2023-09-08T01:30:28;7.22;;;6.53;;
19754;SDS011;10036;47.812;9.274;2023-09-08T01:32:57;9.45;;;6.20;;
19754;SDS011;10036;47.812;9.274;2023-09-08T01:35:25;6.85;;;6.05;;
19754;SDS011;10036;47.812;9.274;2023-09-08T01:37:52;8.68;;;6.68;;
19754;SDS011;10036;47.812;9.274;2023-09-08T01:40:19;7.97;;;6.05;;
19754;SDS011;10036;47.812;9.274;2023-09-08T01:42:48;9.45;;;6.38;;
19754;SDS011;10036;47.812;9.274;2023-09-08T01:45:15;8.00;;;6.50;;
19754;SDS011;10036;47.812;9.274;2023-09-08T01:47:41;13.48;;;6.85;;
19754;SDS011;10036;47.812;9.274;2023-09-08T01:50:08;9.20;;;6.85;;
19754;SDS011;10036;47.812;9.274;2023-09-08T01:52:35;8.00;;;6.28;;
19754;SDS011;10036;47.812;9.274;2023-09-08T01:55:02;10.57;;;6.65;;
19754;SDS011;10036;47.812;9.274;2023-09-08T01:57:30;7.22;;;6.15;;
19754;SDS011;10036;47.812;9.274;2023-09-08T01:59:58;9.05;;;6.30;;
19754;SDS011;10036;47.812;9.274;2023-09-08T02:02:25;8.85;;;6.25;;
19754;SDS011;10036;47.812;9.274;2023-09-08T02:04:52;8.48;;;6.55;;
19754;SDS011;10036;47.812;9.274;2023-09-08T02:07:18;7.45;;;6.75;;
19754;SDS011;10036;47.812;9.274;2023-09-08T02:09:45;7.45;;;6.75;;
19754;SDS011;10036;47.812;9.274;2023-09-08T02:12:12;7.47;;;5.93;;
19754;SDS011;10036;47.812;9.274;2023-09-08T02:14:39;9.60;;;6.40;;
19754;SDS011;10036;47.812;9.274;2023-09-08T02:17:07;8.52;;;6.57;;
19754;SDS011;10036;47.812;9.274;2023-09-08T02:19:35;7.50;;;6.65;;
19754;SDS011;10036;47.812;9.274;2023-09-08T02:22:02;9.27;;;7.18;;
19754;SDS011;10036;47.812;9.274;2023-09-08T02:24:29;8.52;;;6.97;;
19754;SDS011;10036;47.812;9.274;2023-09-08T02:26:56;8.10;;;6.75;;
19754;SDS011;10036;47.812;9.274;2023-09-08T02:29:22;7.50;;;6.65;;
19754;SDS011;10036;47.812;9.274;2023-09-08T02:31:49;10.25;;;6.85;;
19754;SDS011;10036;47.812;9.274;2023-09-08T02:34:17;9.63;;;7.22;;
19754;SDS011;10036;47.812;9.274;2023-09-08T02:36:44;8.20;;;6.72;;
19754;SDS011;10036;47.812;9.274;2023-09-08T02:39:12;7.63;;;6.72;;
19754;SDS011;10036;47.812;9.274;2023-09-08T02:41:39;7.22;;;6.50;;
19754;SDS011;10036;47.812;9.274;2023-09-08T02:44:06;8.35;;;6.85;;
19754;SDS011;10036;47.812;9.274;2023-09-08T02:46:33;7.90;;;7.03;;
19754;SDS011;10036;47.812;9.274;2023-09-08T02:49:00;7.53;;;6.65;;
19754;SDS011;10036;47.812;9.274;2023-09-08T02:51:28;13.27;;;7.22;;
19754;SDS011;10036;47.812;9.274;2023-09-08T02:53:55;9.73;;;6.75;;
19754;SDS011;10036;47.812;9.274;2023-09-08T02:56:22;9.25;;;7.40;;
19754;SDS011;10036;47.812;9.274;2023-09-08T02:58:49;8.85;;;6.95;;
19754;SDS011;10036;47.812;9.274;2023-09-08T03:01:16;9.02;;;6.38;;
19754;SDS011;10036;47.812;9.274;2023-09-08T03:03:45;8.68;;;6.80;;
19754;SDS011;10036;47.812;9.274;2023-09-08T03:06:13;7.78;;;6.97;;
19754;SDS011;10036;47.812;9.274;2023-09-08T03:08:42;8.73;;;6.60;;
19754;SDS011;10036;47.812;9.274;2023-09-08T03:11:09;10.25;;;6.90;;
19754;SDS011;10036;47.812;9.274;2023-09-08T03:13:35;9.70;;;7.40;;
19754;SDS011;10036;47.812;9.274;2023-09-08T03:16:03;9.00;;;6.63;;
19754;SDS011;10036;47.812;9.274;2023-09-08T03:18:31;7.20;;;6.50;;
19754;SDS011;10036;47.812;9.274;2023-09-08T03:20:58;7.22;;;6.40;;
19754;SDS011;10036;47.812;9.274;2023-09-08T03:23:28;9.52;;;7.05;;
19754;SDS011;10036;47.812;9.274;2023-09-08T03:25:56;10.70;;;6.60;;
19754;SDS011;10036;47.812;9.274;2023-09-08T03:28:23;11.10;;;6.63;;
19754;SDS011;10036;47.812;9.274;2023-09-08T03:30:50;7.50;;;6.72;;
19754;SDS011;10036;47.812;9.274;2023-09-08T03:33:17;8.02;;;6.47;;
19754;SDS011;10036;47.812;9.274;2023-09-08T03:35:44;9.02;;;6.55;;
19754;SDS011;10036;47.812;9.274;2023-09-08T03:38:10;8.95;;;6.55;;
19754;SDS011;10036;47.812;9.274;2023-09-08T03:40:37;7.28;;;6.57;;
19754;SDS011;10036;47.812;9.274;2023-09-08T03:43:05;9.55;;;6.28;;
19754;SDS011;10036;47.812;9.274;2023-09-08T03:45:32;7.63;;;6.65;;
19754;SDS011;10036;47.812;9.274;2023-09-08T03:47:59;8.40;;;6.40;;
19754;SDS011;10036;47.812;9.274;2023-09-08T03:50:26;8.63;;;7.05;;
19754;SDS011;10036;47.812;9.274;2023-09-08T03:52:53;9.18;;;7.10;;
19754;SDS011;10036;47.812;9.274;2023-09-08T03:55:20;11.27;;;6.90;;
19754;SDS011;10036;47.812;9.274;2023-09-08T03:57:47;8.05;;;6.88;;
19754;SDS011;10036;47.812;9.274;2023-09-08T04:00:15;8.60;;;6.95;;
19754;SDS011;10036;47.812;9.274;2023-09-08T04:02:47;10.07;;;6.93;;
19754;SDS011;10036;47.812;9.274;2023-09-08T04:05:14;10.57;;;7.03;;
19754;SDS011;10036;47.812;9.274;2023-09-08T04:07:42;8.45;;;6.97;;
19754;SDS011;10036;47.812;9.274;2023-09-08T04:10:09;8.90;;;7.00;;
19754;SDS011;10036;47.812;9.274;2023-09-08T04:12:36;9.70;;;7.28;;
19754;SDS011;10036;47.812;9.274;2023-09-08T04:15:03;9.90;;;6.80;;
19754;SDS011;10036;47.812;9.274;2023-09-08T04:17:32;12.48;;;7.10;;
19754;SDS011;10036;47.812;9.274;2023-09-08T04:20:01;8.73;;;7.10;;
19754;SDS011;10036;47.812;9.274;2023-09-08T04:22:29;10.35;;;8.00;;
19754;SDS011;10036;47.812;9.274;2023-09-08T04:24:56;8.55;;;6.97;;
19754;SDS011;10036;47.812;9.274;2023-09-08T04:27:23;11.85;;;7.30;;
19754;SDS011;10036;47.812;9.274;2023-09-08T04:29:50;9.43;;;7.05;;
19754;SDS011;10036;47.812;9.274;2023-09-08T04:32:17;11.07;;;6.70;;
19754;SDS011;10036;47.812;9.274;2023-09-08T04:34:45;9.25;;;6.97;;
19754;SDS011;10036;47.812;9.274;2023-09-08T04:37:14;11.23;;;7.22;;
19754;SDS011;10036;47.812;9.274;2023-09-08T04:39:41;10.88;;;7.10;;
19754;SDS011;10036;47.812;9.274;2023-09-08T04:42:09;8.60;;;7.10;;
19754;SDS011;10036;47.812;9.274;2023-09-08T04:44:36;10.98;;;7.10;;
19754;SDS011;10036;47.812;9.274;2023-09-08T04:47:03;9.55;;;7.07;;
19754;SDS011;10036;47.812;9.274;2023-09-08T04:49:30;7.53;;;6.75;;
19754;SDS011;10036;47.812;9.274;2023-09-08T04:51:58;9.45;;;7.85;;
19754;SDS011;10036;47.812;9.274;2023-09-08T04:54:25;9.60;;;6.63;;
19754;SDS011;10036;47.812;9.274;2023-09-08T04:56:52;9.13;;;7.40;;
19754;SDS011;10036;47.812;9.274;2023-09-08T04:59:19;10.68;;;7.40;;
19754;SDS011;10036;47.812;9.274;2023-09-08T05:01:48;10.65;;;7.65;;
19754;SDS011;10036;47.812;9.274;2023-09-08T05:04:16;9.68;;;7.32;;
19754;SDS011;10036;47.812;9.274;2023-09-08T05:06:43;9.93;;;7.18;;
19754;SDS011;10036;47.812;9.274;2023-09-08T05:09:12;8.45;;;7.40;;
19754;SDS011;10036;47.812;9.274;2023-09-08T05:11:39;10.20;;;8.15;;
19754;SDS011;10036;47.812;9.274;2023-09-08T05:14:06;10.48;;;7.97;;
19754;SDS011;10036;47.812;9.274;2023-09-08T05:16:33;8.88;;;7.97;;
19754;SDS011;10036;47.812;9.274;2023-09-08T05:19:10;11.63;;;8.15;;
19754;SDS011;10036;47.812;9.274;2023-09-08T05:21:37;16.80;;;8.27;;
19754;SDS011;10036;47.812;9.274;2023-09-08T05:24:04;11.05;;;8.48;;
19754;SDS011;10036;47.812;9.274;2023-09-08T05:26:33;10.98;;;8.50;;
19754;SDS011;10036;47.812;9.274;2023-09-08T05:29:00;11.65;;;8.52;;
19754;SDS011;10036;47.812;9.274;2023-09-08T05:31:27;13.45;;;8.25;;
19754;SDS011;10036;47.812;9.274;2023-09-08T05:33:54;10.38;;;9.18;;
19754;SDS011;10036;47.812;9.274;2023-09-08T05:36:21;11.05;;;8.32;;
19754;SDS011;10036;47.812;9.274;2023-09-08T05:38:48;10.02;;;9.02;;
19754;SDS011;10036;47.812;9.274;2023-09-08T05:41:15;10.85;;;9.27;;
19754;SDS011;10036;47.812;9.274;2023-09-08T05:43:44;10.27;;;8.45;;
19754;SDS011;10036;47.812;9.274;2023-09-08T05:46:11;11.75;;;8.68;;
19754;SDS011;10036;47.812;9.274;2023-09-08T05:48:38;11.85;;;8.65;;
19754;SDS011;10036;47.812;9.274;2023-09-08T05:51:05;10.40;;;9.40;;
19754;SDS011;10036;47.812;9.274;2023-09-08T05:53:32;14.02;;;9.95;;
19754;SDS011;10036;47.812;9.274;2023-09-08T05:56:00;11.23;;;9.50;;
19754;SDS011;10036;47.812;9.274;2023-09-08T05:58:28;12.38;;;9.18;;
19754;SDS011;10036;47.812;9.274;2023-09-08T06:00:56;11.10;;;9.90;;
19754;SDS011;10036;47.812;9.274;2023-09-08T06:03:23;13.82;;;9.15;;
19754;SDS011;10036;47.812;9.274;2023-09-08T06:05:50;13.27;;;10.10;;
19754;SDS011;10036;47.812;9.274;2023-09-08T06:08:17;10.13;;;9.13;;
19754;SDS011;10036;47.812;9.274;2023-09-08T06:10:44;13.60;;;8.98;;
19754;SDS011;10036;47.812;9.274;2023-09-08T06:13:11;14.55;;;9.23;;
19754;SDS011;10036;47.812;9.274;2023-09-08T06:15:38;10.13;;;9.13;;
19754;SDS011;10036;47.812;9.274;2023-09-08T06:18:06;10.85;;;9.75;;
19754;SDS011;10036;47.812;9.274;2023-09-08T06:20:33;11.52;;;9.23;;
19754;SDS011;10036;47.812;9.274;2023-09-08T06:23:00;16.48;;;10.77;;
19754;SDS011;10036;47.812;9.274;2023-09-08T06:25:27;13.50;;;10.48;;
19754;SDS011;10036;47.812;9.274;2023-09-08T06:27:54;18.45;;;10.52;;
19754;SDS011;10036;47.812;9.274;2023-09-08T06:30:21;12.77;;;10.40;;
19754;SDS011;10036;47.812;9.274;2023-09-08T06:32:48;12.60;;;9.90;;
19754;SDS011;10036;47.812;9.274;2023-09-08T06:35:16;14.35;;;10.45;;
19754;SDS011;10036;47.812;9.274;2023-09-08T06:37:43;14.98;;;10.15;;
19754;SDS011;10036;47.812;9.274;2023-09-08T06:40:10;13.45;;;9.32;;
19754;SDS011;10036;47.812;9.274;2023-09-08T06:42:37;15.77;;;10.10;;
19754;SDS011;10036;47.812;9.274;2023-09-08T06:45:04;14.38;;;9.70;;
19754;SDS011;10036;47.812;9.274;2023-09-08T06:47:31;11.00;;;9.13;;
19754;SDS011;10036;47.812;9.274;2023-09-08T06:49:58;11.30;;;9.07;;
19754;SDS011;10036;47.812;9.274;2023-09-08T06:52:26;10.30;;;9.00;;
19754;SDS011;10036;47.812;9.274;2023-09-08T06:54:53;14.02;;;9.85;;
19754;SDS011;10036;47.812;9.274;2023-09-08T06:57:20;10.95;;;9.85;;
19754;SDS011;10036;47.812;9.274;2023-09-08T06:59:47;12.93;;;10.00;;
19754;SDS011;10036;47.812;9.274;2023-09-08T07:02:14;11.05;;;9.85;;
19754;SDS011;10036;47.812;9.274;2023-09-08T07:04:41;10.52;;;9.15;;
19754;SDS011;10036;47.812;9.274;2023-09-08T07:07:08;9.70;;;8.70;;
19754;SDS011;10036;47.812;9.274;2023-09-08T07:09:36;10.57;;;8.95;;
19754;SDS011;10036;47.812;9.274;2023-09-08T07:12:04;10.20;;;9.20;;
19754;SDS011;10036;47.812;9.274;2023-09-08T07:14:32;10.38;;;8.60;;
19754;SDS011;10036;47.812;9.274;2023-09-08T07:16:59;12.68;;;10.10;;
19754;SDS011;10036;47.812;9.274;2023-09-08T07:19:26;10.25;;;8.82;;
19754;SDS011;10036;47.812;9.274;2023-09-08T07:21:53;11.45;;;8.73;;
19754;SDS011;10036;47.812;9.274;2023-09-08T07:24:20;13.32;;;9.35;;
19754;SDS011;10036;47.812;9.274;2023-09-08T07:26:48;9.73;;;8.73;;
19754;SDS011;10036;47.812;9.274;2023-09-08T07:29:15;11.57;;;9.70;;
19754;SDS011;10036;47.812;9.274;2023-09-08T07:31:42;10.32;;;8.48;;
19754;SDS011;10036;47.812;9.274;2023-09-08T07:34:09;10.32;;;9.30;;
19754;SDS011;10036;47.812;9.274;2023-09-08T07:36:36;10.35;;;9.32;;
19754;SDS011;10036;47.812;9.274;2023-09-08T07:39:03;9.30;;;8.40;;
19754;SDS011;10036;47.812;9.274;2023-09-08T07:41:30;11.02;;;8.73;;
19754;SDS011;10036;47.812;9.274;2023-09-08T07:43:58;10.98;;;8.60;;
19754;SDS011;10036;47.812;9.274;2023-09-08T07:46:25;12.43;;;8.98;;
19754;SDS011;10036;47.812;9.274;2023-09-08T07:48:52;10.07;;;8.43;;
19754;SDS011;10036;47.812;9.274;2023-09-08T07:51:19;12.90;;;8.85;;
19754;SDS011;10036;47.812;9.274;2023-09-08T07:53:46;11.48;;;7.78;;
19754;SDS011;10036;47.812;9.274;2023-09-08T07:56:13;13.27;;;9.55;;
19754;SDS011;10036;47.812;9.274;2023-09-08T07:58:40;10.18;;;8.55;;
19754;SDS011;10036;47.812;9.274;2023-09-08T08:01:08;11.65;;;8.82;;
19754;SDS011;10036;47.812;9.274;2023-09-08T08:03:34;12.18;;;8.63;;
19754;SDS011;10036;47.812;9.274;2023-09-08T08:06:02;9.00;;;7.60;;
19754;SDS011;10036;47.812;9.274;2023-09-08T08:08:30;10.27;;;8.77;;
19754;SDS011;10036;47.812;9.274;2023-09-08T08:10:57;9.18;;;7.57;;
19754;SDS011;10036;47.812;9.274;2023-09-08T08:13:24;8.85;;;7.93;;
19754;SDS011;10036;47.812;9.274;2023-09-08T08:15:51;11.77;;;8.57;;
19754;SDS011;10036;47.812;9.274;2023-09-08T08:18:19;10.65;;;9.13;;
19754;SDS011;10036;47.812;9.274;2023-09-08T08:20:46;7.90;;;7.18;;
19754;SDS011;10036;47.812;9.274;2023-09-08T08:23:13;8.60;;;7.70;;
19754;SDS011;10036;47.812;9.274;2023-09-08T08:25:40;10.40;;;7.70;;
19754;SDS011;10036;47.812;9.274;2023-09-08T08:28:06;10.90;;;8.05;;
19754;SDS011;10036;47.812;9.274;2023-09-08T08:30:33;9.55;;;8.02;;
19754;SDS011;10036;47.812;9.274;2023-09-08T08:33:00;9.55;;;7.35;;
19754;SDS011;10036;47.812;9.274;2023-09-08T08:35:30;9.88;;;7.45;;
19754;SDS011;10036;47.812;9.274;2023-09-08T08:37:57;11.85;;;8.38;;
19754;SDS011;10036;47.812;9.274;2023-09-08T08:40:24;7.72;;;6.55;;
19754;SDS011;10036;47.812;9.274;2023-09-08T08:42:54;9.55;;;7.65;;
19754;SDS011;10036;47.812;9.274;2023-09-08T08:45:22;9.35;;;8.20;;
19754;SDS011;10036;47.812;9.274;2023-09-08T08:47:50;11.30;;;8.18;;
19754;SDS011;10036;47.812;9.274;2023-09-08T08:50:18;11.98;;;7.88;;
19754;SDS011;10036;47.812;9.274;2023-09-08T08:52:47;8.68;;;7.88;;
19754;SDS011;10036;47.812;9.274;2023-09-08T08:55:13;10.18;;;7.90;;
19754;SDS011;10036;47.812;9.274;2023-09-08T08:57:41;9.00;;;7.57;;
19754;SDS011;10036;47.812;9.274;2023-09-08T09:00:09;9.57;;;7.55;;
19754;SDS011;10036;47.812;9.274;2023-09-08T09:02:38;8.98;;;8.07;;
19754;SDS011;10036;47.812;9.274;2023-09-08T09:05:07;7.22;;;6.50;;
19754;SDS011;10036;47.812;9.274;2023-09-08T09:07:37;9.60;;;7.10;;
19754;SDS011;10036;47.812;9.274;2023-09-08T09:10:05;7.97;;;7.18;;
19754;SDS011;10036;47.812;9.274;2023-09-08T09:12:33;9.02;;;7.57;;
19754;SDS011;10036;47.812;9.274;2023-09-08T09:15:03;7.45;;;6.50;;
19754;SDS011;10036;47.812;9.274;2023-09-08T09:17:32;10.35;;;6.80;;
19754;SDS011;10036;47.812;9.274;2023-09-08T09:20:12;8.05;;;7.30;;
19754;SDS011;10036;47.812;9.274;2023-09-08T09:22:40;7.28;;;6.57;;
19754;SDS011;10036;47.812;9.274;2023-09-08T09:25:09;7.78;;;6.88;;
19754;SDS011;10036;47.812;9.274;2023-09-08T09:27:36;7.78;;;6.68;;
19754;SDS011;10036;47.812;9.274;2023-09-08T09:30:06;8.60;;;6.68;;
19754;SDS011;10036;47.812;9.274;2023-09-08T09:32:34;12.15;;;6.78;;
19754;SDS011;10036;47.812;9.274;2023-09-08T09:35:01;9.20;;;7.00;;
19754;SDS011;10036;47.812;9.274;2023-09-08T09:37:29;8.43;;;7.15;;
19754;SDS011;10036;47.812;9.274;2023-09-08T09:39:56;11.40;;;7.25;;
19754;SDS011;10036;47.812;9.274;2023-09-08T09:42:24;13.40;;;7.68;;
19754;SDS011;10036;47.812;9.274;2023-09-08T09:44:54;8.65;;;7.55;;
19754;SDS011;10036;47.812;9.274;2023-09-08T09:47:21;8.20;;;7.40;;
19754;SDS011;10036;47.812;9.274;2023-09-08T09:49:49;9.57;;;8.60;;
19754;SDS011;10036;47.812;9.274;2023-09-08T09:52:20;10.10;;;7.80;;
19754;SDS011;10036;47.812;9.274;2023-09-08T09:54:48;9.93;;;7.15;;
19754;SDS011;10036;47.812;9.274;2023-09-08T09:57:16;9.15;;;6.97;;
19754;SDS011;10036;47.812;9.274;2023-09-08T09:59:49;10.70;;;7.28;;
19754;SDS011;10036;47.812;9.274;2023-09-08T10:02:18;8.27;;;7.30;;
19754;SDS011;10036;47.812;9.274;2023-09-08T10:04:47;8.60;;;7.70;;
19754;SDS011;10036;47.812;9.274;2023-09-08T10:07:15;8.07;;;7.22;;
19754;SDS011;10036;47.812;9.274;2023-09-08T10:09:43;10.30;;;7.90;;
19754;SDS011;10036;47.812;9.274;2023-09-08T10:12:11;9.48;;;7.88;;
19754;SDS011;10036;47.812;9.274;2023-09-08T10:14:41;11.52;;;8.18;;
19754;SDS011;10036;47.812;9.274;2023-09-08T10:17:11;11.48;;;7.88;;
19754;SDS011;10036;47.812;9.274;2023-09-08T10:19:42;9.80;;;8.02;;
19754;SDS011;10036;47.812;9.274;2023-09-08T10:22:14;10.73;;;7.18;;
19754;SDS011;10036;47.812;9.274;2023-09-08T10:24:45;8.13;;;7.32;;
19754;SDS011;10036;47.812;9.274;2023-09-08T10:27:14;9.10;;;8.20;;
19754;SDS011;10036;47.812;9.274;2023-09-08T10:29:44;11.23;;;7.40;;
19754;SDS011;10036;47.812;9.274;2023-09-08T10:32:13;8.23;;;7.35;;
19754;SDS011;10036;47.812;9.274;2023-09-08T10:34:41;8.60;;;7.80;;
19754;SDS011;10036;47.812;9.274;2023-09-08T10:37:20;10.95;;;7.60;;
19754;SDS011;10036;47.812;9.274;2023-09-08T10:39:49;8.25;;;7.38;;
19754;SDS011;10036;47.812;9.274;2023-09-08T10:42:22;9.02;;;6.95;;
19754;SDS011;10036;47.812;9.274;2023-09-08T10:45:00;9.80;;;7.40;;
19754;SDS011;10036;47.812;9.274;2023-09-08T10:47:32;9.00;;;7.20;;
19754;SDS011;10036;47.812;9.274;2023-09-08T10:50:07;7.85;;;7.05;;
19754;SDS011;10036;47.812;9.274;2023-09-08T10:52:41;8.57;;;7.47;;
19754;SDS011;10036;47.812;9.274;2023-09-08T10:55:08;9.38;;;7.88;;
19754;SDS011;10036;47.812;9.274;2023-09-08T10:57:37;10.80;;;7.38;;
19754;SDS011;10036;47.812;9.274;2023-09-08T11:00:10;7.90;;;7.20;;
19754;SDS011;10036;47.812;9.274;2023-09-08T11:02:49;8.30;;;7.40;;
19754;SDS011;10036;47.812;9.274;2023-09-08T11:05:16;15.13;;;7.40;;
19754;SDS011;10036;47.812;9.274;2023-09-08T11:07:45;10.15;;;7.80;;
19754;SDS011;10036;47.812;9.274;2023-09-08T11:10:14;11.27;;;7.45;;
19754;SDS011;10036;47.812;9.274;2023-09-08T11:12:41;9.65;;;7.07;;
19754;SDS011;10036;47.812;9.274;2023-09-08T11:15:09;7.70;;;7.00;;
19754;SDS011;10036;47.812;9.274;2023-09-08T11:17:36;8.60;;;6.50;;
19754;SDS011;10036;47.812;9.274;2023-09-08T11:20:08;8.05;;;6.88;;
19754;SDS011;10036;47.812;9.274;2023-09-08T11:22:37;8.65;;;6.95;;
19754;SDS011;10036;47.812;9.274;2023-09-08T11:25:06;11.95;;;7.57;;
19754;SDS011;10036;47.812;9.274;2023-09-08T11:27:33;9.32;;;7.35;;
19754;SDS011;10036;47.812;9.274;2023-09-08T11:30:01;10.82;;;7.50;;
19754;SDS011;10036;47.812;9.274;2023-09-08T11:32:31;8.07;;;7.28;;
19754;SDS011;10036;47.812;9.274;2023-09-08T11:35:00;7.97;;;7.28;;
19754;SDS011;10036;47.812;9.274;2023-09-08T11:37:30;8.63;;;6.50;;
19754;SDS011;10036;47.812;9.274;2023-09-08T11:39:57;9.60;;;6.90;;
19754;SDS011;10036;47.812;9.274;2023-09-08T11:42:23;7.95;;;7.15;;
19754;SDS011;10036;47.812;9.274;2023-09-08T11:44:51;9.95;;;7.22;;
19754;SDS011;10036;47.812;9.274;2023-09-08T11:47:22;7.88;;;6.50;;
19754;SDS011;10036;47.812;9.274;2023-09-08T11:49:49;7.57;;;6.88;;
19754;SDS011;10036;47.812;9.274;2023-09-08T11:52:22;7.18;;;6.47;;
19754;SDS011;10036;47.812;9.274;2023-09-08T11:54:50;9.00;;;6.68;;
19754;SDS011;10036;47.812;9.274;2023-09-08T11:57:18;7.47;;;6.75;;
19754;SDS011;10036;47.812;9.274;2023-09-08T11:59:45;7.13;;;6.43;;
19754;SDS011;10036;47.812;9.274;2023-09-08T12:02:13;7.03;;;6.43;;
19754;SDS011;10036;47.812;9.274;2023-09-08T12:04:40;8.02;;;6.32;;
19754;SDS011;10036;47.812;9.274;2023-09-08T12:07:07;9.40;;;6.13;;
19754;SDS011;10036;47.812;9.274;2023-09-08T12:09:39;10.10;;;6.55;;
19754;SDS011;10036;47.812;9.274;2023-09-08T12:12:11;8.82;;;6.13;;
19754;SDS011;10036;47.812;9.274;2023-09-08T12:14:42;6.90;;;6.30;;
19754;SDS011;10036;47.812;9.274;2023-09-08T12:17:09;6.40;;;5.80;;
19754;SDS011;10036;47.812;9.274;2023-09-08T12:19:36;8.88;;;6.70;;
19754;SDS011;10036;47.812;9.274;2023-09-08T12:22:03;8.05;;;6.45;;
19754;SDS011;10036;47.812;9.274;2023-09-08T12:24:48;9.57;;;6.40;;
19754;SDS011;10036;47.812;9.274;2023-09-08T12:27:23;7.85;;;6.57;;
19754;SDS011;10036;47.812;9.274;2023-09-08T12:29:57;9.88;;;6.38;;
19754;SDS011;10036;47.812;9.274;2023-09-08T12:32:25;7.68;;;6.22;;
19754;SDS011;10036;47.812;9.274;2023-09-08T12:34:54;7.88;;;6.25;;
19754;SDS011;10036;47.812;9.274;2023-09-08T12:37:21;7.03;;;6.18;;
19754;SDS011;10036;47.812;9.274;2023-09-08T12:39:49;9.70;;;6.50;;
19754;SDS011;10036;47.812;9.274;2023-09-08T12:42:17;7.93;;;6.60;;
19754;SDS011;10036;47.812;9.274;2023-09-08T12:44:46;8.60;;;6.55;;
19754;SDS011;10036;47.812;9.274;2023-09-08T12:47:15;8.02;;;5.78;;
19754;SDS011;10036;47.812;9.274;2023-09-08T12:49:41;6.97;;;6.15;;
19754;SDS011;10036;47.812;9.274;2023-09-08T12:52:08;8.15;;;5.80;;
19754;SDS011;10036;47.812;9.274;2023-09-08T12:54:35;9.93;;;6.32;;
19754;SDS011;10036;47.812;9.274;2023-09-08T12:57:02;7.03;;;6.30;;
19754;SDS011;10036;47.812;9.274;2023-09-08T12:59:30;7.38;;;6.68;;
19754;SDS011;10036;47.812;9.274;2023-09-08T13:01:58;7.35;;;6.38;;
19754;SDS011;10036;47.812;9.274;2023-09-08T13:04:25;8.00;;;6.40;;
19754;SDS011;10036;47.812;9.274;2023-09-08T13:06:52;6.38;;;5.70;;
19754;SDS011;10036;47.812;9.274;2023-09-08T13:09:19;10.48;;;5.68;;
19754;SDS011;10036;47.812;9.274;2023-09-08T13:11:47;7.32;;;6.20;;
19754;SDS011;10036;47.812;9.274;2023-09-08T13:14:13;6.60;;;6.03;;
19754;SDS011;10036;47.812;9.274;2023-09-08T13:16:40;8.32;;;5.57;;
19754;SDS011;10036;47.812;9.274;2023-09-08T13:19:08;6.25;;;5.75;;
19754;SDS011;10036;47.812;9.274;2023-09-08T13:21:35;7.20;;;5.35;;
19754;SDS011;10036;47.812;9.274;2023-09-08T13:24:05;8.90;;;5.85;;
19754;SDS011;10036;47.812;9.274;2023-09-08T13:26:33;6.70;;;5.93;;
19754;SDS011;10036;47.812;9.274;2023-09-08T13:28:59;6.60;;;5.88;;
19754;SDS011;10036;47.812;9.274;2023-09-08T13:31:26;6.30;;;5.72;;
19754;SDS011;10036;47.812;9.274;2023-09-08T13:33:53;8.90;;;5.35;;
19754;SDS011;10036;47.812;9.274;2023-09-08T13:36:21;9.55;;;5.78;;
19754;SDS011;10036;47.812;9.274;2023-09-08T13:38:48;6.15;;;5.57;;
19754;SDS011;10036;47.812;9.274;2023-09-08T13:41:15;6.82;;;5.82;;
19754;SDS011;10036;47.812;9.274;2023-09-08T13:43:42;6.97;;;5.60;;
19754;SDS011;10036;47.812;9.274;2023-09-08T13:46:09;6.60;;;4.97;;
19754;SDS011;10036;47.812;9.274;2023-09-08T13:48:36;7.65;;;5.50;;
19754;SDS011;10036;47.812;9.274;2023-09-08T13:51:02;7.15;;;5.50;;
19754;SDS011;10036;47.812;9.274;2023-09-08T13:53:31;6.97;;;5.40;;
19754;SDS011;10036;47.812;9.274;2023-09-08T13:55:58;8.60;;;5.53;;
19754;SDS011;10036;47.812;9.274;2023-09-08T13:58:25;6.90;;;5.57;;
19754;SDS011;10036;47.812;9.274;2023-09-08T14:00:52;11.68;;;6.03;;
19754;SDS011;10036;47.812;9.274;2023-09-08T14:03:19;6.10;;;5.50;;
19754;SDS011;10036;47.812;9.274;2023-09-08T14:05:46;6.38;;;5.78;;
19754;SDS011;10036;47.812;9.274;2023-09-08T14:08:13;6.28;;;5.50;;
19754;SDS011;10036;47.812;9.274;2023-09-08T14:10:41;8.00;;;5.68;;
19754;SDS011;10036;47.812;9.274;2023-09-08T14:13:08;5.95;;;5.15;;
19754;SDS011;10036;47.812;9.274;2023-09-08T14:15:35;5.85;;;5.28;;
19754;SDS011;10036;47.812;9.274;2023-09-08T14:18:02;7.13;;;5.32;;
19754;SDS011;10036;47.812;9.274;2023-09-08T14:20:29;6.00;;;4.90;;
19754;SDS011;10036;47.812;9.274;2023-09-08T14:22:56;5.80;;;5.10;;
19754;SDS011;10036;47.812;9.274;2023-09-08T14:25:23;5.50;;;5.00;;
19754;SDS011;10036;47.812;9.274;2023-09-08T14:27:51;6.75;;;5.28;;
19754;SDS011;10036;47.812;9.274;2023-09-08T14:30:18;6.57;;;4.63;;
19754;SDS011;10036;47.812;9.274;2023-09-08T14:32:46;5.85;;;5.28;;
19754;SDS011;10036;47.812;9.274;2023-09-08T14:35:13;5.78;;;5.18;;
19754;SDS011;10036;47.812;9.274;2023-09-08T14:37:40;5.82;;;5.22;;
19754;SDS011;10036;47.812;9.274;2023-09-08T14:40:07;6.40;;;5.30;;
19754;SDS011;10036;47.812;9.274;2023-09-08T14:42:34;6.38;;;5.00;;
19754;SDS011;10036;47.812;9.274;2023-09-08T14:45:02;7.38;;;5.65;;
19754;SDS011;10036;47.812;9.274;2023-09-08T14:47:30;6.93;;;5.30;;